Time;durP1;ratioP1;P1;durP2;ratioP2;P2;SDS_P1;SDS_P2;PMS_P1;PMS_P2;Temp;Humidity;BMP_temperature;BMP_pressure;BME280_temperature;BME280_humidity;BME280_pressure;Samples;Min_cycle;Max_cycle;Signal;HPM_P1;HPM_P2
2023/07/22 00:00:52;;;;;;;1.33;0.98;;;;;;;;;;7304920;19;142195;-75
2023/07/22 00:03:19;;;;;;;1.20;1.10;;;;;;;;;;7305620;19;141290;-77
2023/07/22 00:05:47;;;;;;;1.20;0.90;;;;;;;;;;7306824;19;140690;-76
2023/07/22 00:08:14;;;;;;;1.50;1.20;;;;;;;;;;7306284;19;140638;-76
2023/07/22 00:10:42;;;;;;;3.42;1.23;;;;;;;;;;7304978;19;141244;-76
2023/07/22 00:13:09;;;;;;;0.90;0.90;;;;;;;;;;7305946;19;144093;-77
2023/07/22 00:15:36;;;;;;;1.50;1.25;;;;;;;;;;7307038;19;140384;-76
2023/07/22 00:18:03;;;;;;;1.17;1.08;;;;;;;;;;7305883;19;140770;-76
2023/07/22 00:20:31;;;;;;;1.60;1.02;;;;;;;;;;7305988;19;141687;-76
2023/07/22 00:22:58;;;;;;;1.00;0.90;;;;;;;;;;7304007;19;142214;-74
2023/07/22 00:25:25;;;;;;;1.85;1.33;;;;;;;;;;7305969;19;140662;-76
2023/07/22 00:27:52;;;;;;;2.42;1.13;;;;;;;;;;7305268;19;140603;-76
2023/07/22 00:30:19;;;;;;;1.73;1.00;;;;;;;;;;7304942;19;140992;-76
2023/07/22 00:32:46;;;;;;;1.00;0.85;;;;;;;;;;7304602;19;142825;-76
2023/07/22 00:35:13;;;;;;;0.88;0.82;;;;;;;;;;7305150;19;140346;-76
2023/07/22 00:37:41;;;;;;;1.30;1.02;;;;;;;;;;7305418;19;140414;-77
2023/07/22 00:40:11;;;;;;;0.80;0.80;;;;;;;;;;7304552;19;140540;-76
2023/07/22 00:42:39;;;;;;;1.63;0.90;;;;;;;;;;7304914;19;141974;-76
2023/07/22 00:45:07;;;;;;;1.23;1.10;;;;;;;;;;7303585;19;140347;-76
2023/07/22 00:47:34;;;;;;;1.30;1.02;;;;;;;;;;7304332;19;140632;-74
2023/07/22 00:50:02;;;;;;;1.42;0.90;;;;;;;;;;7305285;19;142424;-75
2023/07/22 00:52:29;;;;;;;1.17;1.00;;;;;;;;;;7304260;19;142693;-76
2023/07/22 00:54:57;;;;;;;0.88;0.85;;;;;;;;;;7304953;19;140341;-75
2023/07/22 00:57:24;;;;;;;1.23;1.08;;;;;;;;;;7304513;19;140744;-75
2023/07/22 00:59:51;;;;;;;1.00;0.90;;;;;;;;;;7303722;19;140984;-76
2023/07/22 01:02:22;;;;;;;1.00;1.00;;;;;;;;;;7303951;19;142367;-77
2023/07/22 01:04:49;;;;;;;;;;;;;;;;;;7305623;19;140595;-75
2023/07/22 01:07:16;;;;;;;1.15;0.80;;;;;;;;;;7303601;19;140841;-75
2023/07/22 01:09:43;;;;;;;1.00;0.85;;;;;;;;;;7304107;19;141246;-75
2023/07/22 01:12:11;;;;;;;0.95;0.80;;;;;;;;;;7302544;19;141849;-78
2023/07/22 01:14:39;;;;;;;1.15;0.70;;;;;;;;;;7304310;19;140946;-76
2023/07/22 01:17:07;;;;;;;1.73;0.90;;;;;;;;;;7303520;19;140552;-76
2023/07/22 01:19:35;;;;;;;1.02;0.90;;;;;;;;;;7303599;19;141286;-75
2023/07/22 01:22:04;;;;;;;1.38;1.02;;;;;;;;;;7305283;19;141100;-76
2023/07/22 01:24:31;;;;;;;1.05;0.88;;;;;;;;;;7303693;19;140592;-76
2023/07/22 01:26:59;;;;;;;1.02;0.90;;;;;;;;;;7303362;19;140511;-76
2023/07/22 01:29:26;;;;;;;1.38;1.00;;;;;;;;;;7303648;19;141509;-76
2023/07/22 01:31:54;;;;;;;0.80;0.77;;;;;;;;;;7303705;19;142554;-76
2023/07/22 01:34:22;;;;;;;1.15;0.82;;;;;;;;;;7302461;19;140633;-76
2023/07/22 01:36:49;;;;;;;0.85;0.80;;;;;;;;;;7304425;19;140359;-76
2023/07/22 01:39:16;;;;;;;0.82;0.80;;;;;;;;;;7302995;19;141673;-76
2023/07/22 01:41:44;;;;;;;1.58;1.00;;;;;;;;;;7302987;19;141234;-77
2023/07/22 01:44:11;;;;;;;0.95;0.82;;;;;;;;;;7303613;19;140982;-76
2023/07/22 01:46:38;;;;;;;1.02;0.80;;;;;;;;;;7306032;19;140837;-76
2023/07/22 01:49:08;;;;;;;1.20;0.95;;;;;;;;;;7302078;19;141069;-77
2023/07/22 01:51:37;;;;;;;1.67;0.80;;;;;;;;;;7301782;19;142853;-77
2023/07/22 01:54:04;;;;;;;0.90;0.85;;;;;;;;;;7303312;19;140519;-76
2023/07/22 01:56:32;;;;;;;0.60;0.60;;;;;;;;;;7300521;19;140403;-76
2023/07/22 01:58:59;;;;;;;0.77;0.75;;;;;;;;;;7302765;19;141259;-76
2023/07/22 02:01:28;;;;;;;0.65;0.65;;;;;;;;;;7302465;19;142961;-78
2023/07/22 02:03:55;;;;;;;0.65;0.65;;;;;;;;;;7301867;19;140634;-77
2023/07/22 02:06:22;;;;;;;1.10;0.90;;;;;;;;;;7302754;19;140727;-75
2023/07/22 02:08:50;;;;;;;1.10;1.00;;;;;;;;;;7300525;19;141676;-76
2023/07/22 02:11:17;;;;;;;0.88;0.70;;;;;;;;;;7301995;19;140838;-76
2023/07/22 02:13:44;;;;;;;0.88;0.80;;;;;;;;;;7302911;19;140685;-76
2023/07/22 02:16:11;;;;;;;1.42;0.90;;;;;;;;;;7302362;19;140784;-76
2023/07/22 02:18:39;;;;;;;0.88;0.82;;;;;;;;;;7301436;19;142080;-76
2023/07/22 02:21:06;;;;;;;0.80;0.80;;;;;;;;;;7301174;19;142347;-78
2023/07/22 02:23:33;;;;;;;0.73;0.73;;;;;;;;;;7302083;19;140936;-77
2023/07/22 02:26:01;;;;;;;0.80;0.80;;;;;;;;;;7300407;19;140939;-77
2023/07/22 02:28:28;;;;;;;0.95;0.82;;;;;;;;;;7299954;19;141347;-77
2023/07/22 02:30:55;;;;;;;0.90;0.77;;;;;;;;;;7301457;19;142317;-78
2023/07/22 02:33:22;;;;;;;1.27;0.90;;;;;;;;;;7299856;19;140533;-77
2023/07/22 02:35:49;;;;;;;0.70;0.70;;;;;;;;;;7301988;19;140724;-78
2023/07/22 02:38:16;;;;;;;0.90;0.80;;;;;;;;;;7301209;19;141402;-77
2023/07/22 02:40:43;;;;;;;1.05;0.80;;;;;;;;;;7301495;19;140947;-77
2023/07/22 02:43:10;;;;;;;0.65;0.60;;;;;;;;;;7299907;19;140645;-77
2023/07/22 02:45:38;;;;;;;0.93;0.70;;;;;;;;;;7301035;19;140791;-76
2023/07/22 02:48:05;;;;;;;0.85;0.75;;;;;;;;;;7300692;19;141626;-76
2023/07/22 02:50:32;;;;;;;0.70;0.70;;;;;;;;;;7301103;19;142853;-76
2023/07/22 02:52:59;;;;;;;1.10;0.85;;;;;;;;;;7301057;19;140664;-74
2023/07/22 02:55:26;;;;;;;0.70;0.70;;;;;;;;;;7301250;19;140772;-75
2023/07/22 02:57:53;;;;;;;0.68;0.68;;;;;;;;;;7301192;19;140676;-75
2023/07/22 03:00:23;;;;;;;0.85;0.70;;;;;;;;;;7300086;19;142221;-75
2023/07/22 03:02:52;;;;;;;1.00;0.90;;;;;;;;;;7300632;19;140460;-76
2023/07/22 03:05:19;;;;;;;1.58;0.90;;;;;;;;;;7300621;19;140540;-76
2023/07/22 03:07:46;;;;;;;0.52;0.52;;;;;;;;;;7304927;19;141617;-77
2023/07/22 03:10:13;;;;;;;0.70;0.70;;;;;;;;;;7312884;19;141883;-77
2023/07/22 03:12:41;;;;;;;0.60;0.60;;;;;;;;;;7314656;19;140932;-78
2023/07/22 03:15:08;;;;;;;1.23;0.90;;;;;;;;;;7313958;19;140925;-75
2023/07/22 03:17:36;;;;;;;0.73;0.60;;;;;;;;;;7314700;19;140650;-76
2023/07/22 03:20:19;;;;;;;0.70;0.70;;;;;;;;;;7313960;19;142930;-75
2023/07/22 03:22:46;;;;;;;0.98;0.80;;;;;;;;;;7314316;19;140648;-76
2023/07/22 03:25:16;;;;;;;0.73;0.70;;;;;;;;;;7314609;19;140555;-76
2023/07/22 03:27:44;;;;;;;0.73;0.73;;;;;;;;;;7313711;19;141685;-76
2023/07/22 03:30:14;;;;;;;1.10;0.90;;;;;;;;;;7314240;19;141234;-75
2023/07/22 03:32:43;;;;;;;0.63;0.60;;;;;;;;;;7315130;19;140847;-75
2023/07/22 03:35:12;;;;;;;0.60;0.60;;;;;;;;;;7314099;19;140658;-76
2023/07/22 03:37:40;;;;;;;0.50;0.50;;;;;;;;;;7313495;19;140563;-75
2023/07/22 03:40:13;;;;;;;0.60;0.60;;;;;;;;;;7313727;19;142692;-75
2023/07/22 03:42:40;;;;;;;0.68;0.68;;;;;;;;;;7314057;19;140633;-75
2023/07/22 03:45:09;;;;;;;0.63;0.63;;;;;;;;;;7313838;19;140700;-75
2023/07/22 03:47:36;;;;;;;0.80;0.77;;;;;;;;;;7313479;19;141962;-75
2023/07/22 03:50:03;;;;;;;0.75;0.70;;;;;;;;;;7313200;19;142705;-76
2023/07/22 03:52:30;;;;;;;0.60;0.50;;;;;;;;;;7314282;19;141042;-76
2023/07/22 03:54:57;;;;;;;0.75;0.73;;;;;;;;;;7313741;19;140694;-76
2023/07/22 03:57:25;;;;;;;0.60;0.60;;;;;;;;;;7313827;19;141685;-76
2023/07/22 03:59:56;;;;;;;0.68;0.68;;;;;;;;;;7313699;19;140776;-76
2023/07/22 04:02:24;;;;;;;0.70;0.70;;;;;;;;;;7313965;19;140410;-76
2023/07/22 04:04:54;;;;;;;0.98;0.80;;;;;;;;;;7312825;19;141032;-76
2023/07/22 04:07:21;;;;;;;;;;;;;;;;;;7314114;19;141110;-77
2023/07/22 04:09:48;;;;;;;0.77;0.60;;;;;;;;;;7312487;19;149601;-76
2023/07/22 04:12:16;;;;;;;0.73;0.70;;;;;;;;;;7312684;19;140498;-76
2023/07/22 04:14:43;;;;;;;0.70;0.65;;;;;;;;;;7313267;19;140631;-77
2023/07/22 04:17:10;;;;;;;0.70;0.70;;;;;;;;;;7312630;19;141174;-77
2023/07/22 04:19:37;;;;;;;0.55;0.52;;;;;;;;;;7307709;19;141492;-76
2023/07/22 04:22:04;;;;;;;0.82;0.70;;;;;;;;;;7305879;19;140779;-76
2023/07/22 04:24:31;;;;;;;0.90;0.80;;;;;;;;;;7305484;19;140774;-76
2023/07/22 04:26:59;;;;;;;0.75;0.75;;;;;;;;;;7305442;19;140561;-77
2023/07/22 04:29:26;;;;;;;1.05;0.75;;;;;;;;;;7305340;19;141071;-75
2023/07/22 04:31:57;;;;;;;0.50;0.50;;;;;;;;;;7305442;19;140793;-76
2023/07/22 04:34:25;;;;;;;0.70;0.70;;;;;;;;;;7304218;19;140470;-76
2023/07/22 04:36:52;;;;;;;0.80;0.80;;;;;;;;;;7304934;19;141024;-76
2023/07/22 04:39:19;;;;;;;0.70;0.70;;;;;;;;;;7305005;19;141919;-76
2023/07/22 04:41:46;;;;;;;0.68;0.60;;;;;;;;;;7305044;19;140563;-75
2023/07/22 04:44:13;;;;;;;0.60;0.60;;;;;;;;;;7304523;19;140469;-76
2023/07/22 04:46:40;;;;;;;0.70;0.70;;;;;;;;;;7304638;19;141288;-75
2023/07/22 04:49:08;;;;;;;0.68;0.60;;;;;;;;;;7304208;19;142598;-76
2023/07/22 04:51:35;;;;;;;0.60;0.50;;;;;;;;;;7303474;19;141477;-76
2023/07/22 04:54:02;;;;;;;0.70;0.68;;;;;;;;;;7304946;19;140684;-77
2023/07/22 04:56:29;;;;;;;0.60;0.60;;;;;;;;;;7304669;19;141795;-76
2023/07/22 04:58:56;;;;;;;0.60;0.60;;;;;;;;;;7304171;19;141998;-75
2023/07/22 05:01:23;;;;;;;0.57;0.57;;;;;;;;;;7304762;19;140722;-79
2023/07/22 05:03:50;;;;;;;0.57;0.50;;;;;;;;;;7303435;19;140902;-81
2023/07/22 05:06:17;;;;;;;0.50;0.50;;;;;;;;;;7303051;19;140473;-73
2023/07/22 05:08:44;;;;;;;0.52;0.52;;;;;;;;;;7303979;19;142116;-74
2023/07/22 05:11:11;;;;;;;0.60;0.60;;;;;;;;;;7304601;19;140316;-74
2023/07/22 05:13:38;;;;;;;0.63;0.60;;;;;;;;;;7303841;19;141390;-74
2023/07/22 05:16:05;;;;;;;0.50;0.50;;;;;;;;;;7302451;19;141724;-73
2023/07/22 05:18:32;;;;;;;0.80;0.60;;;;;;;;;;7302849;19;142551;-73
2023/07/22 05:20:59;;;;;;;0.55;0.55;;;;;;;;;;7304260;19;140451;-75
2023/07/22 05:23:27;;;;;;;1.55;0.70;;;;;;;;;;7303697;19;140386;-74
2023/07/22 05:25:54;;;;;;;1.65;0.57;;;;;;;;;;7303002;19;141197;-73
2023/07/22 05:28:21;;;;;;;1.52;1.08;;;;;;;;;;7303625;19;142510;-78
2023/07/22 05:30:50;;;;;;;1.30;0.70;;;;;;;;;;7301738;19;140655;-75
2023/07/22 05:33:18;;;;;;;0.70;0.70;;;;;;;;;;7302274;19;140400;-71
2023/07/22 05:35:45;;;;;;;1.20;0.68;;;;;;;;;;7301237;19;141517;-70
2023/07/22 05:38:14;;;;;;;2.20;0.73;;;;;;;;;;7302791;19;142281;-76
2023/07/22 05:40:41;;;;;;;2.13;0.82;;;;;;;;;;7303167;19;140552;-75
2023/07/22 05:43:08;;;;;;;3.25;0.95;;;;;;;;;;7303675;19;140476;-72
2023/07/22 05:45:35;;;;;;;1.88;1.00;;;;;;;;;;7302694;19;141630;-71
2023/07/22 05:48:02;;;;;;;2.20;0.80;;;;;;;;;;7302846;19;141854;-75
2023/07/22 05:50:30;;;;;;;0.82;0.82;;;;;;;;;;7301199;19;140479;-76
2023/07/22 05:52:57;;;;;;;1.77;1.10;;;;;;;;;;7303042;19;140696;-76
2023/07/22 05:55:23;;;;;;;1.90;0.93;;;;;;;;;;7302594;19;141018;-76
2023/07/22 05:57:50;;;;;;;1.42;1.00;;;;;;;;;;7302660;19;142051;-76
2023/07/22 06:00:18;;;;;;;3.45;0.90;;;;;;;;;;7303478;19;140611;-76
2023/07/22 06:02:45;;;;;;;2.63;0.93;;;;;;;;;;7300982;19;140448;-76
2023/07/22 06:05:13;;;;;;;1.65;1.00;;;;;;;;;;7301675;19;140918;-76
2023/07/22 06:07:40;;;;;;;1.95;1.05;;;;;;;;;;7301862;19;142159;-76
2023/07/22 06:10:08;;;;;;;1.30;0.90;;;;;;;;;;7303247;19;140613;-76
2023/07/22 06:12:35;;;;;;;2.20;0.90;;;;;;;;;;7302120;19;140550;-76
2023/07/22 06:15:02;;;;;;;1.92;0.82;;;;;;;;;;7301909;19;141745;-76
2023/07/22 06:17:30;;;;;;;1.20;0.70;;;;;;;;;;7301757;19;141988;-76
2023/07/22 06:19:57;;;;;;;1.25;0.80;;;;;;;;;;7300204;19;140707;-76
2023/07/22 06:22:24;;;;;;;1.30;0.75;;;;;;;;;;7301451;19;140586;-76
2023/07/22 06:24:51;;;;;;;1.52;0.80;;;;;;;;;;7301959;19;141142;-74
2023/07/22 06:27:18;;;;;;;1.60;0.95;;;;;;;;;;7301342;19;141308;-76
2023/07/22 06:29:45;;;;;;;1.42;0.80;;;;;;;;;;7301648;19;140633;-76
2023/07/22 06:32:12;;;;;;;0.80;0.80;;;;;;;;;;7302066;19;140468;-76
2023/07/22 06:34:39;;;;;;;1.05;0.88;;;;;;;;;;7301185;19;142221;-77
2023/07/22 06:37:06;;;;;;;0.80;0.75;;;;;;;;;;7300820;19;141245;-75
2023/07/22 06:39:34;;;;;;;1.15;0.90;;;;;;;;;;7301645;19;140740;-75
2023/07/22 06:42:01;;;;;;;0.95;0.80;;;;;;;;;;7302497;19;140682;-79
2023/07/22 06:44:27;;;;;;;1.58;0.88;;;;;;;;;;7301436;19;141016;-79
2023/07/22 06:46:56;;;;;;;1.83;0.73;;;;;;;;;;7302625;19;141849;-79
2023/07/22 06:49:23;;;;;;;1.42;0.85;;;;;;;;;;7301207;19;140654;-80
2023/07/22 06:51:51;;;;;;;3.83;0.80;;;;;;;;;;7300218;19;140746;-80
2023/07/22 06:54:18;;;;;;;1.67;0.82;;;;;;;;;;7301271;19;140961;-79
2023/07/22 06:56:45;;;;;;;1.00;0.90;;;;;;;;;;7302015;19;141714;-80
2023/07/22 06:59:12;;;;;;;1.30;0.70;;;;;;;;;;7301954;19;140742;-79
2023/07/22 07:01:40;;;;;;;1.13;0.70;;;;;;;;;;7299439;19;140804;-79
2023/07/22 07:04:08;;;;;;;1.58;1.10;;;;;;;;;;7299914;19;141349;-79
2023/07/22 07:06:35;;;;;;;0.85;0.80;;;;;;;;;;7301364;19;141938;-79
2023/07/22 07:09:02;;;;;;;1.20;0.90;;;;;;;;;;7299433;19;140545;-79
2023/07/22 07:11:30;;;;;;;1.45;0.77;;;;;;;;;;7300518;19;140473;-79
2023/07/22 07:13:57;;;;;;;0.80;0.60;;;;;;;;;;7300512;19;140859;-79
2023/07/22 07:16:25;;;;;;;1.33;0.80;;;;;;;;;;7300178;19;141995;-78
2023/07/22 07:18:54;;;;;;;0.85;0.80;;;;;;;;;;7300526;19;140885;-79
2023/07/22 07:21:22;;;;;;;1.17;0.88;;;;;;;;;;7300435;19;140713;-79
2023/07/22 07:23:49;;;;;;;1.02;0.80;;;;;;;;;;7300297;19;141653;-79
2023/07/22 07:26:16;;;;;;;1.02;0.80;;;;;;;;;;7299792;19;142078;-79
2023/07/22 07:28:44;;;;;;;1.48;0.77;;;;;;;;;;7301152;19;140626;-79
2023/07/22 07:31:11;;;;;;;0.80;0.80;;;;;;;;;;7301262;19;140552;-79
2023/07/22 07:33:38;;;;;;;1.50;0.90;;;;;;;;;;7300684;19;141645;-83
2023/07/22 07:36:05;;;;;;;0.85;0.80;;;;;;;;;;7299584;19;141954;-76
2023/07/22 07:38:32;;;;;;;1.33;1.00;;;;;;;;;;7300802;19;140478;-79
2023/07/22 07:41:00;;;;;;;1.23;0.88;;;;;;;;;;7300357;19;140594;-78
2023/07/22 07:43:27;;;;;;;0.93;0.80;;;;;;;;;;7299178;19;141264;-77
2023/07/22 07:46:12;;;;;;;1.33;0.80;;;;;;;;;;7298687;19;141863;-78
2023/07/22 07:48:39;;;;;;;1.13;0.73;;;;;;;;;;7300232;19;140650;-77
2023/07/22 07:51:06;;;;;;;1.10;0.68;;;;;;;;;;7299132;19;140458;-78
2023/07/22 07:53:33;;;;;;;1.38;0.80;;;;;;;;;;7299570;19;141289;-78
2023/07/22 07:56:01;;;;;;;1.20;0.90;;;;;;;;;;7304968;19;141810;-77
2023/07/22 07:58:28;;;;;;;1.65;0.90;;;;;;;;;;7305533;19;140889;-77
2023/07/22 08:00:55;;;;;;;1.23;0.80;;;;;;;;;;7306573;19;140618;-78
2023/07/22 08:03:23;;;;;;;1.80;1.05;;;;;;;;;;7306493;19;142224;-78
2023/07/22 08:05:50;;;;;;;2.00;0.80;;;;;;;;;;7306325;19;143090;-78
2023/07/22 08:08:17;;;;;;;1.23;0.85;;;;;;;;;;7306261;19;140473;-78
2023/07/22 08:10:44;;;;;;;1.20;0.85;;;;;;;;;;7306175;19;140875;-77
2023/07/22 08:13:12;;;;;;;0.85;0.73;;;;;;;;;;7306093;19;141267;-78
2023/07/22 08:15:41;;;;;;;1.45;0.82;;;;;;;;;;7306088;19;141969;-78
2023/07/22 08:18:08;;;;;;;1.60;0.80;;;;;;;;;;7305664;19;140879;-77
2023/07/22 08:20:36;;;;;;;0.70;0.70;;;;;;;;;;7305879;19;140632;-78
2023/07/22 08:23:03;;;;;;;1.00;0.90;;;;;;;;;;7305738;19;140507;-77
2023/07/22 08:25:30;;;;;;;1.25;0.70;;;;;;;;;;7305801;19;143123;-79
2023/07/22 08:27:57;;;;;;;1.38;0.90;;;;;;;;;;7303902;19;140665;-78
2023/07/22 08:30:25;;;;;;;1.15;0.90;;;;;;;;;;7304241;19;140751;-76
2023/07/22 08:32:52;;;;;;;1.60;0.90;;;;;;;;;;7305819;19;142210;-79
2023/07/22 08:35:19;;;;;;;0.80;0.80;;;;;;;;;;7304871;19;142030;-78
2023/07/22 08:37:46;;;;;;;1.73;0.90;;;;;;;;;;7305112;19;141162;-79
2023/07/22 08:40:13;;;;;;;1.73;1.05;;;;;;;;;;7305157;19;140622;-79
2023/07/22 08:42:41;;;;;;;1.30;0.90;;;;;;;;;;7304864;19;140957;-79
2023/07/22 08:45:11;;;;;;;0.80;0.75;;;;;;;;;;7305531;19;141950;-79
2023/07/22 08:47:44;;;;;;;1.20;0.90;;;;;;;;;;7305351;19;140886;-80
2023/07/22 08:50:13;;;;;;;1.38;0.93;;;;;;;;;;7304870;19;140663;-80
2023/07/22 08:52:41;;;;;;;1.52;1.00;;;;;;;;;;7305368;19;140850;-76
2023/07/22 08:55:10;;;;;;;1.00;0.90;;;;;;;;;;7304326;19;143086;-75
2023/07/22 08:57:38;;;;;;;1.10;1.00;;;;;;;;;;7304665;19;140663;-75
2023/07/22 09:00:06;;;;;;;1.20;0.98;;;;;;;;;;7304505;19;140429;-75
2023/07/22 09:02:33;;;;;;;2.50;1.08;;;;;;;;;;7304115;19;142057;-76
2023/07/22 09:05:01;;;;;;;1.55;0.90;;;;;;;;;;7302940;19;141907;-75
2023/07/22 09:07:28;;;;;;;0.75;0.70;;;;;;;;;;7303775;19;140507;-74
2023/07/22 09:09:56;;;;;;;0.80;0.77;;;;;;;;;;7303012;19;140644;-76
2023/07/22 09:12:24;;;;;;;0.90;0.70;;;;;;;;;;7304815;19;142383;-75
2023/07/22 09:14:52;;;;;;;1.20;0.90;;;;;;;;;;7304343;19;142638;-76
2023/07/22 09:17:19;;;;;;;2.15;1.20;;;;;;;;;;7304301;19;140796;-75
2023/07/22 09:19:46;;;;;;;3.83;1.80;;;;;;;;;;7303490;19;140531;-74
2023/07/22 09:22:13;;;;;;;2.58;1.40;;;;;;;;;;7307120;19;140381;-75
2023/07/22 09:24:40;;;;;;;2.63;1.50;;;;;;;;;;7303524;19;142241;-75
2023/07/22 09:27:07;;;;;;;4.57;1.58;;;;;;;;;;7304181;19;140402;-76
2023/07/22 09:29:39;;;;;;;3.10;1.60;;;;;;;;;;7308391;19;140626;-84
2023/07/22 09:32:07;;;;;;;11.93;2.25;;;;;;;;;;7304855;19;142024;-81
2023/07/22 09:34:34;;;;;;;5.15;1.55;;;;;;;;;;7307946;19;140867;-84
2023/07/22 09:37:03;;;;;;;5.50;1.63;;;;;;;;;;7309077;19;140370;-83
2023/07/22 09:39:30;;;;;;;5.18;1.92;;;;;;;;;;7308034;19;140930;-84
2023/07/22 09:41:59;;;;;;;3.72;1.77;;;;;;;;;;7306866;19;141084;-84
2023/07/22 09:44:32;;;;;;;5.43;2.00;;;;;;;;;;7306142;19;142939;-85
2023/07/22 09:47:06;;;;;;;6.95;2.20;;;;;;;;;;7306620;19;141124;-85
2023/07/22 09:49:33;;;;;;;5.38;2.17;;;;;;;;;;7307360;19;140548;-85
2023/07/22 09:52:00;;;;;;;2.67;1.63;;;;;;;;;;7305369;19;141115;-81
2023/07/22 09:54:30;;;;;;;5.18;1.88;;;;;;;;;;7307594;19;142917;-93
2023/07/22 09:56:58;;;;;;;4.47;2.00;;;;;;;;;;7307325;19;140782;-84
2023/07/22 09:59:28;;;;;;;3.30;1.80;;;;;;;;;;7307222;19;140631;-90
2023/07/22 10:01:56;;;;;;;5.47;2.35;;;;;;;;;;7311161;19;141492;-91
2023/07/22 10:04:24;;;;;;;4.45;1.88;;;;;;;;;;7307915;19;141951;-94
2023/07/22 10:06:51;;;;;;;3.63;1.80;;;;;;;;;;7310135;19;140377;-93
2023/07/22 10:09:20;;;;;;;5.03;2.08;;;;;;;;;;7310445;19;140768;-93
2023/07/22 10:11:47;;;;;;;5.57;2.17;;;;;;;;;;7307538;19;141368;-90
2023/07/22 10:14:15;;;;;;;3.80;1.90;;;;;;;;;;7309635;19;140841;-90
2023/07/22 10:16:42;;;;;;;5.55;2.08;;;;;;;;;;7308348;19;140380;-90
2023/07/22 10:19:09;;;;;;;6.45;2.03;;;;;;;;;;7309080;19;140394;-94
2023/07/22 10:21:38;;;;;;;2.55;1.90;;;;;;;;;;7310822;19;141656;-94
2023/07/22 10:24:05;;;;;;;3.65;1.75;;;;;;;;;;7309623;19;142039;-94
2023/07/22 10:26:32;;;;;;;3.67;2.00;;;;;;;;;;7308737;19;140763;-94
2023/07/22 10:29:13;;;;;;;3.83;2.00;;;;;;;;;;7308774;19;140505;-95
2023/07/22 10:31:41;;;;;;;5.38;2.10;;;;;;;;;;7308353;19;141004;-94
2023/07/22 10:34:08;;;;;;;4.30;2.00;;;;;;;;;;7307733;19;141982;-94
2023/07/22 10:36:36;;;;;;;4.75;2.15;;;;;;;;;;7305579;19;141102;-90
2023/07/22 10:39:03;;;;;;;4.55;1.88;;;;;;;;;;7311039;19;140052;-91
2023/07/22 10:41:32;;;;;;;2.92;1.75;;;;;;;;;;7315108;19;141011;-96
2023/07/22 10:44:02;;;;;;;2.97;1.80;;;;;;;;;;7315017;19;142178;-96
2023/07/22 10:46:36;;;;;;;3.30;1.83;;;;;;;;;;7314053;19;140514;-93
2023/07/22 10:49:16;;;;;;;4.93;1.77;;;;;;;;;;7309527;19;140290;-91
2023/07/22 10:51:52;;;;;;;4.20;2.03;;;;;;;;;;7313285;19;141392;-94
2023/07/22 10:54:45;;;;;;;4.15;1.90;;;;;;;;;;7314656;19;142000;-89
2023/07/22 10:57:15;;;;;;;2.65;1.70;;;;;;;;;;7317022;19;140414;-91
2023/07/22 10:59:49;;;;;;;3.03;1.70;;;;;;;;;;7313970;19;140367;-93
2023/07/22 11:02:24;;;;;;;2.80;1.80;;;;;;;;;;7310011;19;140930;-91
2023/07/22 11:04:51;;;;;;;3.38;1.77;;;;;;;;;;7309385;19;141221;-89
2023/07/22 11:07:32;;;;;;;2.30;1.67;;;;;;;;;;7307009;19;140413;-89
2023/07/22 11:10:10;;;;;;;2.67;1.70;;;;;;;;;;7306310;19;140285;-90
2023/07/22 11:12:38;;;;;;;1.92;1.35;;;;;;;;;;7305872;19;140953;-89
2023/07/22 11:15:06;;;;;;;2.00;1.63;;;;;;;;;;7305740;19;141544;-94
2023/07/22 11:17:33;;;;;;;2.63;1.80;;;;;;;;;;7308626;19;140156;-95
2023/07/22 11:20:01;;;;;;;2.83;1.77;;;;;;;;;;7308642;19;140588;-93
2023/07/22 11:22:35;;;;;;;3.67;1.80;;;;;;;;;;7311293;19;140242;-93
2023/07/22 11:25:03;;;;;;;2.63;1.67;;;;;;;;;;7307548;19;142814;-92
2023/07/22 11:27:31;;;;;;;3.08;1.60;;;;;;;;;;7309162;19;140378;-94
2023/07/22 11:29:58;;;;;;;2.25;1.70;;;;;;;;;;7315037;19;140324;-93
2023/07/22 11:32:25;;;;;;;2.50;1.42;;;;;;;;;;7313166;19;140890;-87
2023/07/22 11:34:52;;;;;;;1.92;1.73;;;;;;;;;;7314432;19;140935;-94
2023/07/22 11:37:19;;;;;;;3.58;1.80;;;;;;;;;;7318097;19;140418;-94
2023/07/22 11:39:46;;;;;;;3.28;1.70;;;;;;;;;;7315599;19;140534;-94
2023/07/22 11:42:13;;;;;;;3.45;1.70;;;;;;;;;;7317703;19;139899;-94
2023/07/22 11:44:42;;;;;;;2.67;1.52;;;;;;;;;;7313700;19;140987;-94
2023/07/22 11:47:12;;;;;;;3.90;1.88;;;;;;;;;;7334045;19;139380;-96
2023/07/22 11:49:41;;;;;;;3.90;1.58;;;;;;;;;;7318373;19;140487;-96
2023/07/22 11:52:09;;;;;;;4.30;1.50;;;;;;;;;;7317393;19;141235;-95
2023/07/22 11:54:38;;;;;;;3.60;1.60;;;;;;;;;;7315684;19;140721;-96
2023/07/22 11:57:15;;;;;;;3.05;1.60;;;;;;;;;;7333489;19;139258;-96
2023/07/22 11:59:49;;;;;;;2.47;1.55;;;;;;;;;;7324102;19;140448;-91
2023/07/22 12:02:17;;;;;;;2.22;1.65;;;;;;;;;;7319570;19;140407;-91
2023/07/22 12:04:51;;;;;;;2.95;1.80;;;;;;;;;;7319470;19;140748;-92
2023/07/22 12:07:24;;;;;;;3.53;1.70;;;;;;;;;;7320308;19;140312;-91
2023/07/22 12:09:53;;;;;;;3.05;1.65;;;;;;;;;;7319918;19;140596;-92
2023/07/22 12:12:20;;;;;;;2.33;1.80;;;;;;;;;;7321292;19;140721;-92
2023/07/22 12:14:48;;;;;;;3.25;1.75;;;;;;;;;;7319654;19;141139;-86
2023/07/22 12:17:15;;;;;;;1.67;1.48;;;;;;;;;;7316406;19;141864;-96
2023/07/22 12:19:53;;;;;;;2.15;1.50;;;;;;;;;;7327672;19;139426;-94
2023/07/22 12:22:23;;;;;;;3.17;1.83;;;;;;;;;;7314736;19;141079;-91
2023/07/22 12:24:50;;;;;;;21.75;12.57;;;;;;;;;;7320755;19;142208;-84
2023/07/22 12:27:17;;;;;;;3.42;1.70;;;;;;;;;;7306982;19;140647;-87
2023/07/22 12:29:44;;;;;;;3.05;1.55;;;;;;;;;;7324973;19;140762;-89
2023/07/22 12:32:11;;;;;;;2.53;1.60;;;;;;;;;;7308246;19;140738;-90
2023/07/22 12:34:38;;;;;;;3.08;1.80;;;;;;;;;;7306578;19;142369;-88
2023/07/22 12:37:05;;;;;;;3.88;1.67;;;;;;;;;;7306855;19;140662;-92
2023/07/22 12:39:35;;;;;;;5.50;1.67;;;;;;;;;;7309321;19;140694;-88
2023/07/22 12:42:02;;;;;;;2.53;1.60;;;;;;;;;;7305339;19;141432;-85
2023/07/22 12:44:30;;;;;;;2.75;1.42;;;;;;;;;;7307480;19;142897;-89
2023/07/22 12:46:57;;;;;;;3.35;1.48;;;;;;;;;;7307233;19;140756;-88
2023/07/22 12:49:25;;;;;;;4.93;1.80;;;;;;;;;;7307131;19;141172;-87
2023/07/22 12:51:52;;;;;;;2.35;1.75;;;;;;;;;;7306438;19;141889;-87
2023/07/22 12:54:19;;;;;;;2.15;1.50;;;;;;;;;;7307299;19;142975;-91
2023/07/22 12:56:49;;;;;;;1.70;1.48;;;;;;;;;;7306802;19;140422;-94
2023/07/22 12:59:17;;;;;;;2.10;1.63;;;;;;;;;;7307711;19;140602;-85
2023/07/22 13:01:44;;;;;;;3.15;1.88;;;;;;;;;;7306002;19;142480;-91
2023/07/22 13:04:11;;;;;;;2.60;1.70;;;;;;;;;;7306690;19;142665;-90
2023/07/22 13:06:38;;;;;;;1.80;1.50;;;;;;;;;;7305601;19;140447;-92
2023/07/22 13:09:05;;;;;;;1.90;1.58;;;;;;;;;;7321475;19;140519;-94
2023/07/22 13:11:32;;;;;;;2.63;1.67;;;;;;;;;;7310377;19;141193;-92
2023/07/22 13:13:59;;;;;;;3.13;1.50;;;;;;;;;;7309343;19;141002;-87
2023/07/22 13:16:26;;;;;;;1.80;1.63;;;;;;;;;;7305142;19;140677;-90
2023/07/22 13:18:53;;;;;;;1.92;1.70;;;;;;;;;;7306730;19;140768;-89
2023/07/22 13:21:20;;;;;;;2.58;1.70;;;;;;;;;;7305021;19;140526;-82
2023/07/22 13:23:48;;;;;;;2.97;1.60;;;;;;;;;;7305084;19;141968;-88
2023/07/22 13:26:15;;;;;;;2.10;1.40;;;;;;;;;;7304842;19;140697;-82
2023/07/22 13:28:43;;;;;;;1.63;1.50;;;;;;;;;;7306557;19;140421;-87
2023/07/22 13:31:10;;;;;;;3.80;1.70;;;;;;;;;;7302192;19;140732;-79
2023/07/22 13:33:37;;;;;;;2.83;1.80;;;;;;;;;;7302928;19;140802;-80
2023/07/22 13:36:04;;;;;;;2.80;1.70;;;;;;;;;;7303194;19;140719;-76
2023/07/22 13:38:31;;;;;;;2.70;1.70;;;;;;;;;;7303072;19;141401;-78
2023/07/22 13:40:58;;;;;;;1.60;1.50;;;;;;;;;;7302940;19;141013;-78
2023/07/22 13:43:27;;;;;;;3.28;1.67;;;;;;;;;;7302707;19;142019;-80
2023/07/22 13:45:54;;;;;;;2.05;1.42;;;;;;;;;;7302171;19;140596;-80
2023/07/22 13:48:21;;;;;;;2.97;1.67;;;;;;;;;;7304484;19;140609;-86
2023/07/22 13:50:48;;;;;;;3.05;1.88;;;;;;;;;;7305182;19;141429;-83
2023/07/22 13:53:16;;;;;;;4.18;1.42;;;;;;;;;;7306696;19;142098;-88
2023/07/22 13:55:43;;;;;;;2.03;1.75;;;;;;;;;;7307607;19;140654;-93
2023/07/22 13:58:15;;;;;;;2.30;1.70;;;;;;;;;;7307473;19;140859;-84
2023/07/22 14:00:42;;;;;;;3.15;1.75;;;;;;;;;;7307897;19;140494;-84
2023/07/22 14:03:09;;;;;;;2.95;1.90;;;;;;;;;;7306956;19;141835;-89
2023/07/22 14:05:36;;;;;;;2.33;1.42;;;;;;;;;;7306382;19;140156;-83
2023/07/22 14:08:04;;;;;;;2.72;1.63;;;;;;;;;;7306789;19;140625;-85
2023/07/22 14:10:31;;;;;;;2.67;1.98;;;;;;;;;;7306753;19;141210;-85
2023/07/22 14:12:58;;;;;;;2.58;1.52;;;;;;;;;;7304809;19;141867;-85
2023/07/22 14:15:25;;;;;;;2.05;1.40;;;;;;;;;;7306645;19;140854;-86
2023/07/22 14:17:52;;;;;;;2.90;1.80;;;;;;;;;;7305084;19;141215;-85
2023/07/22 14:20:19;;;;;;;1.50;1.38;;;;;;;;;;7306139;19;141144;-85
2023/07/22 14:22:49;;;;;;;2.05;1.70;;;;;;;;;;7306139;19;140674;-85
2023/07/22 14:25:16;;;;;;;1.85;1.48;;;;;;;;;;7306603;19;140494;-83
2023/07/22 14:27:44;;;;;;;3.10;1.70;;;;;;;;;;7306714;19;140557;-84
2023/07/22 14:30:11;;;;;;;3.08;1.38;;;;;;;;;;7305945;19;140510;-83
2023/07/22 14:32:38;;;;;;;1.75;1.50;;;;;;;;;;7304649;19;142005;-85
2023/07/22 14:35:05;;;;;;;3.05;1.63;;;;;;;;;;7306855;19;140722;-84